createdAt,value
2023-01-07T00:01:30.090Z,17.38
2023-01-07T00:03:31.763Z,16.63
2023-01-07T00:05:33.266Z,16.65
2023-01-07T00:07:34.817Z,16.25
2023-01-07T00:09:36.332Z,12.68
2023-01-07T00:11:39.796Z,14.57
2023-01-07T00:13:41.317Z,15.07
2023-01-07T00:15:42.840Z,15.05
2023-01-07T00:17:44.365Z,13.50
2023-01-07T00:19:45.975Z,16.48
2023-01-07T00:21:47.663Z,16.50
2023-01-07T00:23:49.200Z,15.57
2023-01-07T00:25:51.656Z,13.98
2023-01-07T00:27:53.207Z,16.10
2023-01-07T00:29:54.773Z,17.65
2023-01-07T00:31:57.146Z,21.38
2023-01-07T00:33:58.955Z,16.95
2023-01-07T00:36:07.917Z,17.48
2023-01-07T00:38:09.490Z,16.00
2023-01-07T00:40:11.479Z,16.75
2023-01-07T00:42:31.637Z,16.13
2023-01-07T00:44:34.224Z,17.02
2023-01-07T00:46:35.967Z,19.67
2023-01-07T00:48:37.528Z,18.35
2023-01-07T00:50:39.497Z,19.55
2023-01-07T00:52:40.969Z,23.30
2023-01-07T00:54:42.622Z,25.50
2023-01-07T00:56:44.170Z,22.20
2023-01-07T00:58:46.630Z,22.25
2023-01-07T01:00:48.557Z,23.17
2023-01-07T01:02:51.079Z,23.20
2023-01-07T01:04:52.620Z,24.92
2023-01-07T01:06:54.158Z,28.25
2023-01-07T01:08:55.650Z,29.05
2023-01-07T01:11:03.060Z,30.45
2023-01-07T01:13:04.612Z,27.88
2023-01-07T01:15:10.217Z,28.33
2023-01-07T01:17:11.924Z,29.42
2023-01-07T01:19:13.556Z,36.53
2023-01-07T01:21:16.468Z,35.28
2023-01-07T01:23:17.997Z,42.50
2023-01-07T01:25:19.612Z,57.38
2023-01-07T01:27:21.120Z,60.25
2023-01-07T01:29:22.746Z,42.10
2023-01-07T01:31:24.333Z,43.08
2023-01-07T01:33:25.893Z,36.88
2023-01-07T01:35:27.485Z,33.20
2023-01-07T01:37:29.146Z,33.08
2023-01-07T01:39:30.921Z,26.95
2023-01-07T01:41:32.643Z,26.38
2023-01-07T01:43:40.190Z,25.95
2023-01-07T01:45:41.722Z,29.15
2023-01-07T01:48:02.561Z,26.73
2023-01-07T01:50:19.087Z,26.75
2023-01-07T01:52:24.456Z,27.35
2023-01-07T01:54:26.522Z,25.35
2023-01-07T01:56:33.574Z,26.92
2023-01-07T01:58:38.772Z,24.17
2023-01-07T02:00:41.521Z,21.80
2023-01-07T02:02:57.673Z,22.70
2023-01-07T02:05:00.150Z,20.13
2023-01-07T02:07:11.328Z,21.08
2023-01-07T02:09:13.746Z,19.58
2023-01-07T02:11:28.299Z,17.05
2023-01-07T02:13:56.958Z,20.52
2023-01-07T02:16:27.758Z,25.05
2023-01-07T02:18:42.465Z,26.20
2023-01-07T02:20:55.952Z,22.52
2023-01-07T02:23:19.087Z,27.80
2023-01-07T02:26:14.874Z,26.80
2023-01-07T02:28:38.070Z,24.02
2023-01-07T02:31:01.531Z,27.33
2023-01-07T02:33:12.253Z,27.65
2023-01-07T02:35:50.309Z,27.25
2023-01-07T02:38:00.670Z,22.52
2023-01-07T02:40:09.685Z,25.05
2023-01-07T02:42:14.056Z,27.10
2023-01-07T02:44:44.214Z,30.48
2023-01-07T02:47:15.520Z,32.03
2023-01-07T02:49:18.361Z,30.63
2023-01-07T02:51:19.887Z,33.80
2023-01-07T02:53:21.956Z,29.83
2023-01-07T02:55:39.815Z,31.83
2023-01-07T02:57:56.308Z,29.02
2023-01-07T03:00:10.050Z,37.75
2023-01-07T03:02:34.333Z,33.55
2023-01-07T03:04:44.994Z,38.58
2023-01-07T03:06:55.531Z,39.85
2023-01-07T03:09:33.407Z,42.80
2023-01-07T03:11:44.281Z,36.97
2023-01-07T03:13:58.890Z,41.75
2023-01-07T03:16:05.975Z,43.97
2023-01-07T03:18:25.615Z,58.58
2023-01-07T03:20:29.534Z,66.28
2023-01-07T03:22:34.601Z,70.82
2023-01-07T03:24:36.270Z,80.90
2023-01-07T03:26:43.353Z,87.65
2023-01-07T03:28:46.656Z,89.90
2023-01-07T03:30:50.534Z,110.50
2023-01-07T03:33:02.222Z,84.45
2023-01-07T03:35:04.096Z,75.30
2023-01-07T03:37:18.270Z,69.40
2023-01-07T03:39:23.111Z,52.72
2023-01-07T03:41:43.452Z,53.55
2023-01-07T03:43:44.965Z,63.03
2023-01-07T03:45:48.861Z,69.07
2023-01-07T03:47:53.242Z,78.05
2023-01-07T03:49:54.906Z,92.05
2023-01-07T03:51:56.429Z,103.95
2023-01-07T03:53:58.000Z,103.22
2023-01-07T03:55:59.540Z,89.45
2023-01-07T03:58:01.240Z,85.55
2023-01-07T04:00:05.023Z,90.00
2023-01-07T04:02:06.707Z,94.07
2023-01-07T04:04:08.494Z,81.30
2023-01-07T04:06:10.187Z,66.47
2023-01-07T04:08:11.705Z,61.30
2023-01-07T04:10:13.269Z,54.92
2023-01-07T04:12:14.979Z,72.47
2023-01-07T04:14:16.597Z,77.63
2023-01-07T04:16:18.150Z,83.10
2023-01-07T04:18:19.789Z,93.85
2023-01-07T04:20:21.360Z,78.90
2023-01-07T04:22:22.863Z,80.60
2023-01-07T04:24:24.512Z,94.57
2023-01-07T04:26:26.020Z,91.85
2023-01-07T04:28:27.659Z,135.07
2023-01-07T04:30:29.233Z,141.82
2023-01-07T04:32:30.780Z,129.15
2023-01-07T04:34:32.349Z,107.30
2023-01-07T04:36:33.885Z,108.85
2023-01-07T04:38:35.400Z,105.40
2023-01-07T04:40:38.057Z,100.43
2023-01-07T04:42:39.609Z,102.25
2023-01-07T04:44:41.164Z,108.43
2023-01-07T04:46:42.706Z,106.15
2023-01-07T04:48:44.240Z,91.68
2023-01-07T04:50:47.292Z,90.95
2023-01-07T04:52:49.046Z,103.35
2023-01-07T04:54:50.650Z,105.93
2023-01-07T04:56:52.204Z,98.70
2023-01-07T04:58:54.550Z,93.75
2023-01-07T05:00:58.700Z,93.60
2023-01-07T05:03:00.420Z,136.65
2023-01-07T05:05:02.137Z,165.65
2023-01-07T05:07:03.676Z,163.13
2023-01-07T05:09:05.416Z,138.75
2023-01-07T05:11:06.980Z,160.13
2023-01-07T05:13:15.385Z,156.88
2023-01-07T05:15:17.023Z,174.23
2023-01-07T05:17:18.552Z,136.55
2023-01-07T05:19:21.799Z,112.57
2023-01-07T05:21:23.337Z,104.00
2023-01-07T05:23:24.949Z,105.00
2023-01-07T05:25:26.465Z,111.95
2023-01-07T05:27:27.983Z,106.90
2023-01-07T05:29:29.524Z,92.97
2023-01-07T05:31:31.072Z,111.30
2023-01-07T05:33:32.643Z,95.55
2023-01-07T05:35:35.542Z,87.00
2023-01-07T05:37:37.096Z,98.13
2023-01-07T05:39:38.621Z,89.70
2023-01-07T05:41:40.215Z,117.40
2023-01-07T05:43:41.736Z,100.40
2023-01-07T05:45:46.588Z,85.32
2023-01-07T05:47:48.570Z,86.85
2023-01-07T05:49:50.110Z,87.70
2023-01-07T05:51:51.632Z,99.95
2023-01-07T05:53:53.166Z,91.05
2023-01-07T05:55:59.496Z,93.45
2023-01-07T05:58:01.008Z,142.30
2023-01-07T06:00:03.078Z,159.15
2023-01-07T06:02:04.779Z,139.18
2023-01-07T06:04:06.435Z,122.30
2023-01-07T06:06:07.978Z,128.60
2023-01-07T06:08:09.503Z,130.20
2023-01-07T06:10:11.270Z,123.75
2023-01-07T06:12:12.750Z,105.28
2023-01-07T06:14:14.495Z,110.35
2023-01-07T06:16:16.233Z,113.30
2023-01-07T06:18:17.794Z,106.35
2023-01-07T06:20:19.329Z,106.70
2023-01-07T06:22:20.845Z,137.18
2023-01-07T06:24:22.352Z,158.05
2023-01-07T06:26:24.047Z,166.10
2023-01-07T06:28:25.667Z,165.02
2023-01-07T06:30:27.338Z,115.10
2023-01-07T06:32:28.840Z,117.15
2023-01-07T06:34:30.340Z,129.38
2023-01-07T06:36:31.890Z,112.80
2023-01-07T06:38:33.665Z,108.22
2023-01-07T06:40:35.219Z,117.65
2023-01-07T06:42:36.737Z,124.22
2023-01-07T06:44:38.341Z,147.18
2023-01-07T06:46:39.993Z,154.23
2023-01-07T06:48:41.644Z,143.80
2023-01-07T06:50:45.028Z,108.32
2023-01-07T06:52:46.541Z,114.80
2023-01-07T06:54:48.672Z,136.90
2023-01-07T06:56:50.356Z,126.82
2023-01-07T06:58:52.029Z,182.13
2023-01-07T07:00:53.702Z,266.42
2023-01-07T07:02:55.357Z,252.38
2023-01-07T07:04:56.921Z,232.52
2023-01-07T07:06:58.469Z,179.48
2023-01-07T07:09:00.003Z,166.63
2023-01-07T07:11:01.510Z,139.02
2023-01-07T07:13:03.239Z,120.60
2023-01-07T07:15:06.377Z,123.05
2023-01-07T07:17:07.941Z,119.45
2023-01-07T07:19:09.465Z,118.28
2023-01-07T07:21:11.060Z,120.57
2023-01-07T07:23:12.719Z,113.00
2023-01-07T07:25:14.974Z,112.60
2023-01-07T07:27:16.533Z,132.10
2023-01-07T07:29:18.716Z,153.82
2023-01-07T07:31:21.268Z,164.45
2023-01-07T07:33:22.890Z,136.65
2023-01-07T07:35:24.809Z,116.50
2023-01-07T07:37:26.352Z,99.30
2023-01-07T07:39:27.959Z,98.75
2023-01-07T07:41:30.800Z,95.88
2023-01-07T07:43:35.231Z,103.28
2023-01-07T07:45:37.102Z,90.43
2023-01-07T07:47:38.639Z,87.03
2023-01-07T07:49:40.205Z,100.55
2023-01-07T07:51:41.736Z,81.68
2023-01-07T07:53:43.478Z,87.78
2023-01-07T07:55:45.849Z,87.97
2023-01-07T07:57:47.372Z,88.53
2023-01-07T07:59:49.073Z,85.25
2023-01-07T08:01:50.824Z,84.53
2023-01-07T08:03:52.589Z,84.53
2023-01-07T08:05:54.161Z,55.50
2023-01-07T08:07:56.689Z,47.38
2023-01-07T08:09:58.206Z,34.97
2023-01-07T08:11:59.748Z,36.00
2023-01-07T08:14:01.410Z,36.28
2023-01-07T08:16:03.053Z,38.05
2023-01-07T08:18:07.520Z,35.25
2023-01-07T08:20:10.491Z,39.85
2023-01-07T08:22:12.001Z,33.90
2023-01-07T08:24:13.537Z,43.72
2023-01-07T08:26:15.053Z,39.45
2023-01-07T08:28:16.612Z,50.72
2023-01-07T08:30:18.605Z,44.55
2023-01-07T08:32:20.335Z,59.58
2023-01-07T08:34:22.991Z,65.65
2023-01-07T08:36:25.822Z,61.53
2023-01-07T08:38:28.915Z,54.30
2023-01-07T08:40:30.627Z,46.83
2023-01-07T08:42:32.309Z,44.72
2023-01-07T08:44:34.724Z,47.90
2023-01-07T08:46:36.527Z,44.55
2023-01-07T08:48:40.228Z,39.15
2023-01-07T08:50:41.898Z,36.97
2023-01-07T08:52:46.248Z,40.13
2023-01-07T08:54:48.654Z,59.08
2023-01-07T08:56:50.199Z,52.67
2023-01-07T08:58:51.778Z,38.53
2023-01-07T09:00:53.562Z,26.65
2023-01-07T09:02:55.204Z,25.05
2023-01-07T09:04:56.707Z,22.35
2023-01-07T09:06:58.231Z,24.10
2023-01-07T09:08:59.763Z,20.98
2023-01-07T09:11:01.306Z,24.60
2023-01-07T09:13:02.908Z,24.00
2023-01-07T09:15:04.846Z,25.00
2023-01-07T09:17:06.371Z,22.63
2023-01-07T09:19:07.951Z,20.92
2023-01-07T09:21:09.875Z,38.22
2023-01-07T09:23:11.551Z,28.27
2023-01-07T09:25:13.297Z,27.30
2023-01-07T09:27:16.667Z,24.25
2023-01-07T09:29:18.556Z,21.65
2023-01-07T09:31:20.174Z,20.90
2023-01-07T09:33:21.780Z,20.45
2023-01-07T09:35:23.474Z,18.70
2023-01-07T09:37:25.075Z,21.65
2023-01-07T09:39:26.721Z,29.17
2023-01-07T09:41:57.539Z,42.33
2023-01-07T09:44:25.861Z,21.83
2023-01-07T09:46:27.820Z,16.48
2023-01-07T09:48:37.886Z,17.88
2023-01-07T09:50:49.945Z,17.55
2023-01-07T09:52:56.539Z,16.38
2023-01-07T09:55:07.820Z,17.27
2023-01-07T09:57:16.486Z,12.40
2023-01-07T09:59:19.132Z,17.15
2023-01-07T10:01:34.824Z,13.25
2023-01-07T10:03:39.297Z,31.45
2023-01-07T10:05:46.651Z,12.07
2023-01-07T10:08:28.778Z,13.90
2023-01-07T10:10:34.213Z,12.65
2023-01-07T10:12:42.588Z,14.02
2023-01-07T10:15:08.549Z,12.65
2023-01-07T10:17:19.548Z,12.38
2023-01-07T10:20:01.966Z,13.18
2023-01-07T10:22:16.842Z,17.88
2023-01-07T10:24:27.570Z,20.60
2023-01-07T10:26:35.883Z,26.60
2023-01-07T10:28:57.038Z,26.25
2023-01-07T10:31:00.259Z,20.33
2023-01-07T10:33:18.541Z,20.70
2023-01-07T10:35:23.636Z,18.98
2023-01-07T10:37:38.500Z,20.40
2023-01-07T10:40:15.956Z,11.90
2023-01-07T10:43:18.989Z,26.38
2023-01-07T10:46:03.796Z,14.10
2023-01-07T10:48:59.583Z,17.75
2023-01-07T10:51:26.478Z,16.45
2023-01-07T10:53:55.290Z,21.45
2023-01-07T10:56:42.291Z,24.17
2023-01-07T10:59:00.221Z,13.38
2023-01-07T11:01:07.159Z,12.75
2023-01-07T11:03:29.023Z,12.18
2023-01-07T11:05:53.902Z,10.48
2023-01-07T11:08:01.636Z,12.77
2023-01-07T11:10:24.003Z,34.92
2023-01-07T11:12:46.221Z,13.15
2023-01-07T11:14:50.168Z,12.32
2023-01-07T11:17:02.726Z,13.10
2023-01-07T11:19:12.972Z,41.28
2023-01-07T11:21:42.809Z,39.85
2023-01-07T11:23:46.095Z,33.38
2023-01-07T11:25:48.554Z,21.98
2023-01-07T11:27:50.768Z,53.70
2023-01-07T11:29:59.275Z,38.00
2023-01-07T11:32:05.700Z,28.40
2023-01-07T11:34:18.967Z,34.05
2023-01-07T11:36:20.694Z,28.15
2023-01-07T11:38:31.729Z,31.25
2023-01-07T11:40:33.867Z,31.00
2023-01-07T11:42:49.619Z,20.75
2023-01-07T11:45:19.236Z,23.90
2023-01-07T11:47:24.051Z,23.05
2023-01-07T11:49:31.779Z,23.23
2023-01-07T11:51:43.955Z,27.33
2023-01-07T11:53:52.015Z,25.17
2023-01-07T11:55:59.360Z,30.55
2023-01-07T11:58:28.622Z,25.63
2023-01-07T12:00:22.926Z,26.35
2023-01-07T12:02:26.960Z,25.65
2023-01-07T12:04:32.041Z,23.10
2023-01-07T12:06:36.007Z,23.55
2023-01-07T12:08:53.847Z,21.88
2023-01-07T12:11:09.073Z,19.77
2023-01-07T12:13:21.263Z,24.48
2023-01-07T12:15:38.078Z,24.20
2023-01-07T12:17:55.037Z,24.58
2023-01-07T12:20:38.573Z,23.08
2023-01-07T12:22:50.704Z,19.98
2023-01-07T12:25:33.617Z,24.50
2023-01-07T12:28:11.236Z,24.60
2023-01-07T12:30:34.523Z,16.15
2023-01-07T12:33:06.619Z,17.95
2023-01-07T12:35:18.188Z,17.50
2023-01-07T12:37:32.335Z,15.80
2023-01-07T12:39:38.004Z,19.70
2023-01-07T12:41:44.064Z,26.13
2023-01-07T12:44:00.328Z,26.85
2023-01-07T12:46:07.757Z,26.13
2023-01-07T12:48:24.050Z,23.65
2023-01-07T12:50:48.103Z,25.95
2023-01-07T12:52:55.331Z,23.42
2023-01-07T12:55:03.473Z,19.52
2023-01-07T12:57:24.864Z,15.30
2023-01-07T12:59:55.434Z,14.73
2023-01-07T13:02:58.781Z,16.65
2023-01-07T13:05:20.123Z,20.77
2023-01-07T13:08:13.197Z,17.15
2023-01-07T13:10:17.943Z,21.33
2023-01-07T13:12:42.259Z,14.68
2023-01-07T13:14:52.278Z,16.30
2023-01-07T13:17:02.664Z,22.73
2023-01-07T13:19:08.435Z,16.73
2023-01-07T13:21:15.355Z,17.95
2023-01-07T13:23:27.434Z,26.23
2023-01-07T13:25:35.897Z,18.30
2023-01-07T13:28:03.906Z,18.50
2023-01-07T13:30:14.604Z,22.08
2023-01-07T13:32:32.130Z,45.42
2023-01-07T13:34:55.569Z,20.30
2023-01-07T13:37:00.633Z,23.90
2023-01-07T13:39:18.806Z,20.13
2023-01-07T13:41:39.701Z,22.80
2023-01-07T13:44:09.313Z,30.98
2023-01-07T13:46:17.000Z,23.98
2023-01-07T13:48:22.993Z,21.25
2023-01-07T13:50:41.902Z,22.77
2023-01-07T13:52:46.047Z,26.67
2023-01-07T13:54:53.622Z,22.63
2023-01-07T13:56:55.716Z,32.42
2023-01-07T13:58:58.270Z,31.60
2023-01-07T14:01:30.407Z,32.30
2023-01-07T14:03:49.769Z,40.60
2023-01-07T14:06:23.942Z,47.00
2023-01-07T14:08:28.900Z,35.28
2023-01-07T14:10:38.045Z,36.90
2023-01-07T14:13:05.160Z,44.30
2023-01-07T14:15:23.349Z,48.65
2023-01-07T14:18:01.669Z,53.30
2023-01-07T14:20:41.884Z,50.05
2023-01-07T14:23:16.242Z,52.90
2023-01-07T14:25:41.983Z,109.45
2023-01-07T14:27:56.631Z,64.85
2023-01-07T14:30:15.889Z,77.47
2023-01-07T14:32:34.305Z,83.90
2023-01-07T14:34:35.865Z,234.48
2023-01-07T14:37:02.286Z,245.73
2023-01-07T14:39:03.887Z,330.17
2023-01-07T14:41:16.434Z,338.42
2023-01-07T14:43:48.636Z,425.38
2023-01-07T14:45:50.104Z,351.95
2023-01-07T14:47:53.422Z,191.07
2023-01-07T14:50:02.773Z,231.80
2023-01-07T14:52:31.176Z,135.90
2023-01-07T14:54:32.709Z,137.25
2023-01-07T14:56:56.064Z,81.55
2023-01-07T14:59:25.886Z,102.72
2023-01-07T15:01:58.855Z,106.45
2023-01-07T15:04:27.728Z,395.05
2023-01-07T15:06:35.771Z,371.02
2023-01-07T15:09:09.830Z,267.77
2023-01-07T15:11:43.030Z,220.32
2023-01-07T15:14:16.599Z,303.80
2023-01-07T15:16:20.738Z,212.73
2023-01-07T15:18:22.980Z,165.45
2023-01-07T15:20:38.357Z,192.73
2023-01-07T15:22:42.845Z,130.35
2023-01-07T15:24:55.431Z,174.55
2023-01-07T15:27:05.558Z,149.38
2023-01-07T15:29:18.994Z,291.95
2023-01-07T15:31:42.596Z,290.55
2023-01-07T15:34:10.467Z,154.85
2023-01-07T15:36:15.758Z,219.27
2023-01-07T15:38:46.151Z,206.40
2023-01-07T15:40:47.984Z,250.60
2023-01-07T15:42:52.502Z,185.13
2023-01-07T15:44:59.242Z,232.60
2023-01-07T15:47:01.000Z,259.60
2023-01-07T15:49:08.518Z,246.40
2023-01-07T15:51:17.796Z,155.70
2023-01-07T15:53:25.681Z,192.45
2023-01-07T15:55:37.425Z,263.50
2023-01-07T15:57:40.983Z,301.10
2023-01-07T15:59:45.769Z,220.63
2023-01-07T16:01:49.500Z,196.45
2023-01-07T16:03:53.880Z,239.07
2023-01-07T16:05:56.230Z,227.25
2023-01-07T16:08:01.803Z,487.90
2023-01-07T16:10:03.949Z,527.85
2023-01-07T16:12:20.399Z,439.30
2023-01-07T16:14:25.110Z,334.25
2023-01-07T16:16:28.296Z,278.98
2023-01-07T16:18:33.846Z,568.22
2023-01-07T16:20:43.016Z,366.65
2023-01-07T16:22:44.985Z,315.55
2023-01-07T16:24:52.454Z,654.38
2023-01-07T16:27:05.167Z,769.70
2023-01-07T16:29:17.254Z,900.47
2023-01-07T16:31:21.940Z,1026.20
2023-01-07T16:33:27.331Z,1069.97
2023-01-07T16:35:33.897Z,624.03
2023-01-07T16:37:39.649Z,243.65
2023-01-07T16:39:47.459Z,263.88
2023-01-07T16:41:49.488Z,286.40
2023-01-07T16:43:55.752Z,373.88
2023-01-07T16:46:23.945Z,311.90
2023-01-07T16:48:25.565Z,320.85
2023-01-07T16:50:35.327Z,342.60
2023-01-07T16:52:37.075Z,271.85
2023-01-07T16:54:41.453Z,306.33
2023-01-07T16:56:48.978Z,377.40
2023-01-07T16:58:55.752Z,1082.50
2023-01-07T17:01:00.394Z,910.90
2023-01-07T17:03:02.169Z,416.80
2023-01-07T17:05:31.036Z,693.83
2023-01-07T17:07:38.001Z,371.02
2023-01-07T17:09:39.543Z,347.75
2023-01-07T17:11:41.745Z,595.20
2023-01-07T17:13:44.136Z,434.98
2023-01-07T17:15:45.700Z,446.73
2023-01-07T17:17:47.279Z,578.33
2023-01-07T17:19:53.981Z,1326.57
2023-01-07T17:21:56.637Z,711.75
2023-01-07T17:23:58.810Z,605.35
2023-01-07T17:26:02.053Z,316.73
2023-01-07T17:28:08.743Z,275.58
2023-01-07T17:30:17.185Z,325.88
2023-01-07T17:32:18.942Z,303.92
2023-01-07T17:34:20.554Z,373.65
2023-01-07T17:36:25.096Z,290.95
2023-01-07T17:38:26.645Z,283.90
2023-01-07T17:40:28.258Z,295.73
2023-01-07T17:42:51.334Z,417.77
2023-01-07T17:44:52.837Z,592.10
2023-01-07T17:46:54.382Z,440.98
2023-01-07T17:48:57.401Z,379.70
2023-01-07T17:51:00.733Z,485.90
2023-01-07T17:53:02.715Z,528.55
2023-01-07T17:55:04.809Z,877.55
2023-01-07T17:57:06.453Z,627.22
2023-01-07T17:59:14.319Z,523.15
2023-01-07T18:01:18.445Z,548.53
2023-01-07T18:03:20.239Z,585.92
2023-01-07T18:05:24.818Z,1005.83
2023-01-07T18:07:26.351Z,329.73
2023-01-07T18:09:28.000Z,698.25
2023-01-07T18:11:48.606Z,592.50
2023-01-07T18:13:50.232Z,679.38
2023-01-07T18:15:52.332Z,1947.55
2023-01-07T18:17:53.940Z,806.63
2023-01-07T18:19:55.730Z,1277.53
2023-01-07T18:21:57.362Z,857.97
2023-01-07T18:23:58.929Z,1036.50
2023-01-07T18:26:00.616Z,1570.47
2023-01-07T18:28:02.340Z,1346.80
2023-01-07T18:30:04.315Z,1999.90
2023-01-07T18:32:06.020Z,847.75
2023-01-07T18:34:08.985Z,932.25
2023-01-07T18:36:11.856Z,867.50
2023-01-07T18:38:14.732Z,832.75
2023-01-07T18:40:16.469Z,801.20
2023-01-07T18:42:18.300Z,1077.72
2023-01-07T18:44:22.456Z,1209.15
2023-01-07T18:46:24.012Z,671.90
2023-01-07T18:48:26.032Z,684.40
2023-01-07T18:50:27.695Z,658.33
2023-01-07T18:52:31.081Z,677.40
2023-01-07T18:54:33.647Z,1475.05
2023-01-07T18:56:35.125Z,1073.05
2023-01-07T18:58:36.873Z,1122.57
2023-01-07T19:00:38.404Z,830.90
2023-01-07T19:02:40.179Z,1031.90
2023-01-07T19:04:41.790Z,669.80
2023-01-07T19:06:43.352Z,703.60
2023-01-07T19:08:45.063Z,715.60
2023-01-07T19:10:48.047Z,763.08
2023-01-07T19:12:50.550Z,756.88
2023-01-07T19:14:52.395Z,643.53
2023-01-07T19:16:54.710Z,720.78
2023-01-07T19:18:56.286Z,588.08
2023-01-07T19:21:02.853Z,562.03
2023-01-07T19:23:04.437Z,590.58
2023-01-07T19:25:06.583Z,631.53
2023-01-07T19:27:08.160Z,526.80
2023-01-07T19:29:11.338Z,519.88
2023-01-07T19:31:14.513Z,797.47
2023-01-07T19:33:16.193Z,1431.25
2023-01-07T19:35:17.718Z,1253.38
2023-01-07T19:37:19.467Z,1310.57
2023-01-07T19:39:23.597Z,1155.15
2023-01-07T19:41:25.116Z,1015.55
2023-01-07T19:43:26.789Z,1168.32
2023-01-07T19:45:28.353Z,1198.68
2023-01-07T19:47:29.909Z,970.13
2023-01-07T19:49:31.405Z,740.55
2023-01-07T19:51:37.773Z,1069.82
2023-01-07T19:53:39.742Z,1067.60
2023-01-07T19:55:41.388Z,938.97
2023-01-07T19:57:42.973Z,1673.30
2023-01-07T19:59:44.658Z,1162.25
2023-01-07T20:01:46.334Z,953.63
2023-01-07T20:03:47.971Z,850.47
2023-01-07T20:05:49.546Z,735.17
2023-01-07T20:07:51.102Z,701.28
2023-01-07T20:09:52.655Z,640.95
2023-01-07T20:11:54.188Z,675.40
2023-01-07T20:13:55.703Z,823.25
2023-01-07T20:16:03.653Z,881.47
2023-01-07T20:18:05.457Z,662.35
2023-01-07T20:20:08.309Z,1375.13
2023-01-07T20:22:11.145Z,1065.50
2023-01-07T20:24:13.507Z,550.38
2023-01-07T20:26:20.733Z,562.20
2023-01-07T20:28:22.575Z,575.10
2023-01-07T20:30:24.137Z,616.53
2023-01-07T20:32:26.435Z,483.33
2023-01-07T20:34:27.995Z,456.15
2023-01-07T20:36:31.644Z,464.15
2023-01-07T20:38:33.544Z,590.92
2023-01-07T20:40:42.434Z,639.05
2023-01-07T20:42:44.161Z,625.22
2023-01-07T20:44:47.427Z,546.92
2023-01-07T20:46:49.359Z,656.33
2023-01-07T20:48:51.235Z,390.15
2023-01-07T20:50:52.807Z,360.80
2023-01-07T20:52:54.353Z,421.35
2023-01-07T20:54:56.006Z,455.38
2023-01-07T20:56:57.540Z,443.05
2023-01-07T20:59:00.676Z,518.75
2023-01-07T21:01:07.615Z,538.63
2023-01-07T21:03:09.307Z,665.53
2023-01-07T21:05:10.999Z,718.15
2023-01-07T21:07:12.555Z,984.38
2023-01-07T21:09:15.295Z,803.47
2023-01-07T21:11:20.023Z,662.03
2023-01-07T21:13:22.351Z,523.22
2023-01-07T21:15:23.906Z,536.65
2023-01-07T21:17:25.403Z,595.65
2023-01-07T21:19:26.978Z,535.88
2023-01-07T21:21:28.562Z,771.92
2023-01-07T21:23:30.138Z,903.78
2023-01-07T21:25:31.756Z,671.47
2023-01-07T21:27:33.347Z,904.97
2023-01-07T21:29:34.901Z,1053.05
2023-01-07T21:31:36.557Z,1145.07
2023-01-07T21:33:39.872Z,1170.53
2023-01-07T21:35:41.770Z,1190.90
2023-01-07T21:37:43.311Z,930.42
2023-01-07T21:39:44.983Z,600.97
2023-01-07T21:41:46.623Z,801.40
2023-01-07T21:43:48.531Z,775.92
2023-01-07T21:45:50.271Z,932.38
2023-01-07T21:47:51.860Z,765.05
2023-01-07T21:49:54.267Z,811.47
2023-01-07T21:51:56.003Z,910.58
2023-01-07T21:53:58.359Z,948.85
2023-01-07T21:56:09.219Z,803.88
2023-01-07T21:58:10.710Z,877.83
2023-01-07T22:00:12.992Z,958.67
2023-01-07T22:02:17.748Z,881.40
2023-01-07T22:04:19.585Z,919.63
2023-01-07T22:06:32.220Z,720.80
2023-01-07T22:08:34.707Z,669.35
2023-01-07T22:10:36.242Z,602.28
2023-01-07T22:12:38.337Z,624.25
2023-01-07T22:14:40.210Z,643.28
2023-01-07T22:16:42.217Z,598.67
2023-01-07T22:18:43.873Z,697.42
2023-01-07T22:20:45.389Z,625.70
2023-01-07T22:22:46.890Z,666.08
2023-01-07T22:24:48.455Z,564.65
2023-01-07T22:26:50.141Z,415.67
2023-01-07T22:28:57.317Z,829.70
2023-01-07T22:31:01.755Z,608.67
2023-01-07T22:33:03.372Z,515.67
2023-01-07T22:35:05.313Z,696.88
2023-01-07T22:37:10.274Z,788.97
2023-01-07T22:39:35.697Z,648.33
2023-01-07T22:41:37.798Z,697.30
2023-01-07T22:43:39.646Z,625.83
2023-01-07T22:45:56.717Z,660.22
2023-01-07T22:47:58.502Z,632.80
2023-01-07T22:50:02.672Z,585.17
2023-01-07T22:52:04.907Z,690.08
2023-01-07T22:54:07.265Z,561.90
2023-01-07T22:56:08.821Z,681.38
2023-01-07T22:58:10.522Z,534.65
2023-01-07T23:00:37.005Z,678.85
2023-01-07T23:02:38.507Z,758.08
2023-01-07T23:04:40.017Z,765.28
2023-01-07T23:06:41.513Z,745.60
2023-01-07T23:08:43.756Z,724.78
2023-01-07T23:10:45.494Z,607.20
2023-01-07T23:12:46.997Z,550.70
2023-01-07T23:14:48.647Z,637.47
2023-01-07T23:16:51.643Z,748.85
2023-01-07T23:18:53.345Z,567.22
2023-01-07T23:20:54.882Z,585.80
2023-01-07T23:22:56.411Z,569.22
2023-01-07T23:24:57.942Z,535.80
2023-01-07T23:26:59.468Z,558.45
2023-01-07T23:29:01.021Z,499.55
2023-01-07T23:31:02.561Z,668.83
2023-01-07T23:33:04.295Z,582.83
2023-01-07T23:35:06.752Z,713.97
2023-01-07T23:37:08.394Z,524.88
2023-01-07T23:39:09.916Z,496.67
2023-01-07T23:41:12.404Z,643.40
2023-01-07T23:43:13.897Z,547.00
2023-01-07T23:45:16.275Z,592.83
2023-01-07T23:47:17.793Z,584.95
2023-01-07T23:49:19.323Z,580.15
2023-01-07T23:51:21.596Z,586.03
2023-01-07T23:53:23.475Z,623.83
2023-01-07T23:55:25.029Z,447.42
2023-01-07T23:57:27.628Z,475.27
2023-01-07T23:59:29.133Z,313.52
